SXB67 LFPO-LFLL
Flight info
| Callsign | SXB67 |
|---|---|
| Flight time | 0h 42m |
| Altitude | 27000 |
| Route | OKASI DCT OKEKO DCT OKEPI DCT MOU/N0365F190 A3 FEDZI |
| Aircraft | A320/M-SDE3FGHIRWY/LB1 |
Departure
| Time | 2026-05-05 19:40 |
|---|---|
| Airport | Paris-Orly Airport (LFPO) |
Arrival
| Time | 2026-05-05 20:22 |
|---|---|
| Airport | Lyon Saint-Exupéry Airport (LFLL) |
| Time | Latitude | Longitude | Altitude | Speed | Heading |
|---|---|---|---|---|---|
| 2026-05-05 19:08 | 48.72620 | 2.35169 | 293 ft | 0 kts | 255° |
| 2026-05-05 19:32 | 48.72624 | 2.35194 | 293 ft | 4 kts | 252° |
| 2026-05-05 19:32 | 48.72634 | 2.35232 | 294 ft | 4 kts | 242° |
| 2026-05-05 19:32 | 48.72649 | 2.35264 | 295 ft | 4 kts | 211° |
| 2026-05-05 19:32 | 48.72665 | 2.35271 | 293 ft | 0 kts | 165° |
| 2026-05-05 19:35 | 48.72500 | 2.35341 | 290 ft | 18 kts | 161° |
| 2026-05-05 19:35 | 48.72399 | 2.35395 | 292 ft | 13 kts | 154° |
| 2026-05-05 19:35 | 48.72336 | 2.35464 | 289 ft | 10 kts | 133° |
| 2026-05-05 19:35 | 48.72303 | 2.35544 | 293 ft | 8 kts | 126° |
| 2026-05-05 19:36 | 48.72264 | 2.35586 | 292 ft | 5 kts | 156° |
| 2026-05-05 19:36 | 48.72224 | 2.35604 | 290 ft | 8 kts | 166° |
| 2026-05-05 19:36 | 48.72180 | 2.35621 | 290 ft | 5 kts | 166° |
| 2026-05-05 19:36 | 48.72136 | 2.35636 | 291 ft | 7 kts | 167° |
| 2026-05-05 19:37 | 48.72079 | 2.35668 | 293 ft | 11 kts | 150° |
| 2026-05-05 19:37 | 48.72035 | 2.35736 | 290 ft | 7 kts | 124° |
| 2026-05-05 19:37 | 48.72007 | 2.35811 | 293 ft | 10 kts | 118° |
| 2026-05-05 19:37 | 48.71981 | 2.35883 | 291 ft | 6 kts | 118° |
| 2026-05-05 19:38 | 48.71965 | 2.35926 | 291 ft | 5 kts | 118° |
| 2026-05-05 19:38 | 48.71961 | 2.35966 | 291 ft | 4 kts | 78° |
| 2026-05-05 19:38 | 48.71965 | 2.35984 | 291 ft | 0 kts | 76° |
| 2026-05-05 19:39 | 48.71984 | 2.36100 | 289 ft | 40 kts | 76° |
| 2026-05-05 19:39 | 48.72127 | 2.36853 | 290 ft | 105 kts | 75° |
| 2026-05-05 19:39 | 48.72372 | 2.38182 | 296 ft | 154 kts | 76° |
| 2026-05-05 19:40 | 48.72638 | 2.39737 | 898 ft | 150 kts | 73° |
| 2026-05-05 19:40 | 48.72921 | 2.41282 | 1474 ft | 154 kts | 70° |
| 2026-05-05 19:40 | 48.73217 | 2.42847 | 2118 ft | 158 kts | 69° |
| 2026-05-05 19:40 | 48.73542 | 2.44550 | 2444 ft | 180 kts | 70° |
| 2026-05-05 19:41 | 48.73909 | 2.46484 | 2761 ft | 202 kts | 71° |
| 2026-05-05 19:41 | 48.74191 | 2.48669 | 3160 ft | 223 kts | 81° |
| 2026-05-05 19:41 | 48.74305 | 2.51092 | 3709 ft | 239 kts | 84° |
| 2026-05-05 19:41 | 48.74372 | 2.53713 | 4256 ft | 257 kts | 86° |
| 2026-05-05 19:42 | 48.74320 | 2.56456 | 5032 ft | 267 kts | 101° |
| 2026-05-05 19:42 | 48.73400 | 2.58922 | 5861 ft | 277 kts | 136° |
| 2026-05-05 19:42 | 48.71730 | 2.60391 | 6682 ft | 282 kts | 159° |
| 2026-05-05 19:42 | 48.69827 | 2.61186 | 7528 ft | 284 kts | 168° |
| 2026-05-05 19:43 | 48.67897 | 2.61755 | 8504 ft | 282 kts | 169° |
| 2026-05-05 19:43 | 48.65957 | 2.62106 | 9417 ft | 281 kts | 181° |
| 2026-05-05 19:43 | 48.64003 | 2.61821 | 10167 ft | 287 kts | 191° |
| 2026-05-05 19:43 | 48.62006 | 2.60977 | 10435 ft | 308 kts | 203° |
| 2026-05-05 19:44 | 48.60041 | 2.59535 | 10930 ft | 320 kts | 207° |
| 2026-05-05 19:44 | 48.58025 | 2.57990 | 11520 ft | 328 kts | 207° |
| 2026-05-05 19:44 | 48.55957 | 2.56485 | 12245 ft | 332 kts | 201° |
| 2026-05-05 19:44 | 48.53683 | 2.55823 | 12977 ft | 337 kts | 180° |
| 2026-05-05 19:45 | 48.51369 | 2.56430 | 13692 ft | 342 kts | 161° |
| 2026-05-05 19:45 | 48.49150 | 2.57756 | 14372 ft | 344 kts | 159° |
| 2026-05-05 19:45 | 48.46955 | 2.59109 | 15014 ft | 346 kts | 159° |
| 2026-05-05 19:45 | 48.44726 | 2.60489 | 15708 ft | 348 kts | 159° |
| 2026-05-05 19:46 | 48.42478 | 2.61874 | 16363 ft | 350 kts | 159° |
| 2026-05-05 19:46 | 48.40217 | 2.63264 | 17021 ft | 352 kts | 160° |
| 2026-05-05 19:46 | 48.37931 | 2.64665 | 17629 ft | 356 kts | 159° |
| 2026-05-05 19:46 | 48.35629 | 2.66071 | 18236 ft | 359 kts | 159° |
| 2026-05-05 19:47 | 48.33307 | 2.67485 | 18778 ft | 361 kts | 159° |
| 2026-05-05 19:47 | 48.30968 | 2.68907 | 19322 ft | 364 kts | 159° |
| 2026-05-05 19:47 | 48.28614 | 2.70334 | 19888 ft | 366 kts | 159° |
| 2026-05-05 19:47 | 48.26246 | 2.71768 | 20449 ft | 368 kts | 158° |
| 2026-05-05 19:48 | 48.23864 | 2.73210 | 20982 ft | 371 kts | 158° |
| 2026-05-05 19:48 | 48.21463 | 2.74665 | 21528 ft | 373 kts | 158° |
| 2026-05-05 19:48 | 48.19041 | 2.76134 | 22082 ft | 376 kts | 158° |
| 2026-05-05 19:48 | 48.16609 | 2.77605 | 22631 ft | 378 kts | 158° |
| 2026-05-05 19:49 | 48.14160 | 2.79085 | 23161 ft | 381 kts | 158° |
| 2026-05-05 19:49 | 48.12528 | 2.80073 | 23500 ft | 383 kts | 158° |
| 2026-05-05 19:49 | 48.09212 | 2.82077 | 24079 ft | 386 kts | 158° |
| 2026-05-05 19:49 | 48.06707 | 2.83584 | 24505 ft | 388 kts | 158° |
| 2026-05-05 19:50 | 48.04194 | 2.85092 | 24924 ft | 391 kts | 158° |
| 2026-05-05 19:50 | 48.01690 | 2.86592 | 25333 ft | 393 kts | 158° |
| 2026-05-05 19:50 | 47.99116 | 2.88136 | 25735 ft | 395 kts | 158° |
| 2026-05-05 19:50 | 47.96589 | 2.89650 | 26134 ft | 398 kts | 158° |
| 2026-05-05 19:51 | 47.94016 | 2.91187 | 26529 ft | 399 kts | 158° |
| 2026-05-05 19:51 | 47.91429 | 2.92735 | 26792 ft | 401 kts | 158° |
| 2026-05-05 19:51 | 47.88865 | 2.94271 | 26834 ft | 389 kts | 158° |
| 2026-05-05 19:51 | 47.86351 | 2.95772 | 26839 ft | 395 kts | 158° |
| 2026-05-05 19:52 | 47.83761 | 2.97315 | 26853 ft | 407 kts | 158° |
| 2026-05-05 19:52 | 47.81097 | 2.98899 | 26850 ft | 418 kts | 158° |
| 2026-05-05 19:52 | 47.78366 | 3.00522 | 26850 ft | 427 kts | 158° |
| 2026-05-05 19:52 | 47.75575 | 3.02180 | 26860 ft | 436 kts | 159° |
| 2026-05-05 19:53 | 47.72733 | 3.03866 | 26852 ft | 443 kts | 158° |
| 2026-05-05 19:53 | 47.69868 | 3.05563 | 26851 ft | 445 kts | 159° |
| 2026-05-05 19:53 | 47.66987 | 3.07268 | 26861 ft | 446 kts | 159° |
| 2026-05-05 19:53 | 47.64106 | 3.08973 | 26860 ft | 446 kts | 158° |
| 2026-05-05 19:54 | 47.61226 | 3.10679 | 26855 ft | 446 kts | 158° |
| 2026-05-05 19:54 | 47.58345 | 3.12383 | 26860 ft | 446 kts | 159° |
| 2026-05-05 19:54 | 47.55470 | 3.14082 | 26863 ft | 446 kts | 158° |
| 2026-05-05 19:54 | 47.52588 | 3.15783 | 26868 ft | 446 kts | 159° |
| 2026-05-05 19:55 | 47.49705 | 3.17480 | 26867 ft | 446 kts | 159° |
| 2026-05-05 19:55 | 47.46821 | 3.19171 | 26868 ft | 446 kts | 159° |
| 2026-05-05 19:55 | 47.43936 | 3.20856 | 26856 ft | 446 kts | 159° |
| 2026-05-05 19:55 | 47.41053 | 3.22540 | 26863 ft | 446 kts | 159° |
| 2026-05-05 19:56 | 47.38172 | 3.24228 | 26862 ft | 445 kts | 159° |
| 2026-05-05 19:56 | 47.35291 | 3.25912 | 26850 ft | 445 kts | 159° |
| 2026-05-05 19:56 | 47.32410 | 3.27592 | 26859 ft | 445 kts | 160° |
| 2026-05-05 19:56 | 47.29530 | 3.29268 | 26853 ft | 445 kts | 160° |
| 2026-05-05 19:57 | 47.26649 | 3.30942 | 26845 ft | 445 kts | 160° |
| 2026-05-05 19:57 | 47.24747 | 3.32047 | 26852 ft | 445 kts | 160° |
| 2026-05-05 19:57 | 47.20939 | 3.34263 | 26855 ft | 444 kts | 160° |
| 2026-05-05 19:57 | 47.18064 | 3.35940 | 26860 ft | 444 kts | 160° |
| 2026-05-05 19:58 | 47.15190 | 3.37611 | 26848 ft | 444 kts | 160° |
| 2026-05-05 19:58 | 47.12310 | 3.39279 | 26858 ft | 444 kts | 160° |
| 2026-05-05 19:58 | 47.09440 | 3.40936 | 26855 ft | 444 kts | 161° |
| 2026-05-05 19:58 | 47.06566 | 3.42590 | 26857 ft | 444 kts | 161° |
| 2026-05-05 19:59 | 47.03692 | 3.44245 | 26856 ft | 444 kts | 160° |
| 2026-05-05 19:59 | 47.00822 | 3.45898 | 26859 ft | 444 kts | 160° |
| 2026-05-05 19:59 | 46.97949 | 3.47553 | 26859 ft | 444 kts | 160° |
| 2026-05-05 19:59 | 46.95080 | 3.49204 | 26859 ft | 444 kts | 160° |
| 2026-05-05 20:00 | 46.92207 | 3.50859 | 26707 ft | 441 kts | 161° |
| 2026-05-05 20:00 | 46.89359 | 3.52499 | 25649 ft | 441 kts | 161° |
| 2026-05-05 20:00 | 46.86493 | 3.54144 | 24537 ft | 444 kts | 161° |
| 2026-05-05 20:00 | 46.83636 | 3.55783 | 23750 ft | 439 kts | 161° |
| 2026-05-05 20:01 | 46.80801 | 3.57407 | 23107 ft | 436 kts | 161° |
| 2026-05-05 20:01 | 46.77967 | 3.59025 | 22681 ft | 436 kts | 161° |
| 2026-05-05 20:01 | 46.75150 | 3.60630 | 22267 ft | 434 kts | 161° |
| 2026-05-05 20:01 | 46.72345 | 3.62225 | 21863 ft | 431 kts | 161° |
| 2026-05-05 20:02 | 46.69560 | 3.63803 | 21463 ft | 429 kts | 161° |
| 2026-05-05 20:02 | 46.66776 | 3.65351 | 21073 ft | 427 kts | 161° |
| 2026-05-05 20:02 | 46.64040 | 3.66842 | 20690 ft | 424 kts | 161° |
| 2026-05-05 20:02 | 46.61276 | 3.68336 | 20311 ft | 422 kts | 161° |
| 2026-05-05 20:03 | 46.58549 | 3.69872 | 19927 ft | 419 kts | 156° |
| 2026-05-05 20:03 | 46.56134 | 3.72144 | 19717 ft | 408 kts | 141° |
| 2026-05-05 20:03 | 46.54285 | 3.75178 | 19593 ft | 397 kts | 127° |
| 2026-05-05 20:03 | 46.52787 | 3.78430 | 19468 ft | 375 kts | 126° |
| 2026-05-05 20:04 | 46.51402 | 3.81473 | 19289 ft | 351 kts | 126° |
| 2026-05-05 20:04 | 46.50078 | 3.84382 | 18785 ft | 340 kts | 126° |
| 2026-05-05 20:04 | 46.48781 | 3.87222 | 18127 ft | 335 kts | 126° |
| 2026-05-05 20:04 | 46.47498 | 3.90022 | 17365 ft | 331 kts | 126° |
| 2026-05-05 20:05 | 46.46226 | 3.92791 | 16618 ft | 328 kts | 126° |
| 2026-05-05 20:05 | 46.44964 | 3.95534 | 15897 ft | 326 kts | 126° |
| 2026-05-05 20:05 | 46.43712 | 3.98257 | 15193 ft | 323 kts | 126° |
| 2026-05-05 20:05 | 46.42890 | 4.00046 | 14734 ft | 322 kts | 126° |
| 2026-05-05 20:06 | 46.41646 | 4.02749 | 14222 ft | 322 kts | 126° |
| 2026-05-05 20:06 | 46.40406 | 4.05443 | 13872 ft | 320 kts | 126° |
| 2026-05-05 20:06 | 46.39171 | 4.08121 | 13487 ft | 319 kts | 126° |
| 2026-05-05 20:06 | 46.37941 | 4.10786 | 13099 ft | 317 kts | 126° |
| 2026-05-05 20:07 | 46.36713 | 4.13440 | 12713 ft | 316 kts | 126° |
| 2026-05-05 20:07 | 46.35494 | 4.16072 | 12329 ft | 314 kts | 126° |
| 2026-05-05 20:07 | 46.34282 | 4.18681 | 11949 ft | 312 kts | 126° |
| 2026-05-05 20:07 | 46.33075 | 4.21282 | 11572 ft | 310 kts | 126° |
| 2026-05-05 20:08 | 46.31875 | 4.23873 | 11197 ft | 309 kts | 126° |
| 2026-05-05 20:08 | 46.30683 | 4.26447 | 10821 ft | 307 kts | 126° |
| 2026-05-05 20:08 | 46.29496 | 4.29007 | 10450 ft | 305 kts | 126° |
| 2026-05-05 20:08 | 46.28317 | 4.31544 | 10071 ft | 304 kts | 126° |
| 2026-05-05 20:09 | 46.27141 | 4.34069 | 9793 ft | 299 kts | 126° |
| 2026-05-05 20:09 | 46.25997 | 4.36524 | 9582 ft | 291 kts | 126° |
| 2026-05-05 20:09 | 46.24872 | 4.38938 | 9234 ft | 288 kts | 126° |
| 2026-05-05 20:09 | 46.23752 | 4.41329 | 8852 ft | 286 kts | 126° |
| 2026-05-05 20:10 | 46.22641 | 4.43705 | 8489 ft | 284 kts | 126° |
| 2026-05-05 20:10 | 46.21539 | 4.46062 | 8101 ft | 283 kts | 126° |
| 2026-05-05 20:10 | 46.20448 | 4.48393 | 7879 ft | 276 kts | 126° |
| 2026-05-05 20:10 | 46.19366 | 4.50706 | 7886 ft | 281 kts | 126° |
| 2026-05-05 20:11 | 46.18267 | 4.53051 | 7892 ft | 283 kts | 126° |
| 2026-05-05 20:11 | 46.17164 | 4.55401 | 7792 ft | 282 kts | 126° |
| 2026-05-05 20:11 | 46.16069 | 4.57735 | 7382 ft | 280 kts | 126° |
| 2026-05-05 20:11 | 46.14975 | 4.60058 | 6994 ft | 279 kts | 126° |
| 2026-05-05 20:12 | 46.13890 | 4.62362 | 6716 ft | 273 kts | 126° |
| 2026-05-05 20:12 | 46.12847 | 4.64585 | 6587 ft | 262 kts | 126° |
| 2026-05-05 20:12 | 46.11849 | 4.66714 | 6462 ft | 251 kts | 126° |
| 2026-05-05 20:12 | 46.10883 | 4.68769 | 6205 ft | 246 kts | 126° |
| 2026-05-05 20:13 | 46.09927 | 4.70797 | 5862 ft | 244 kts | 126° |
| 2026-05-05 20:13 | 46.08976 | 4.72815 | 5496 ft | 243 kts | 126° |
| 2026-05-05 20:13 | 46.08038 | 4.74798 | 5139 ft | 243 kts | 126° |
| 2026-05-05 20:13 | 46.07092 | 4.76792 | 4988 ft | 240 kts | 126° |
| 2026-05-05 20:14 | 46.06146 | 4.78780 | 5000 ft | 241 kts | 126° |
| 2026-05-05 20:14 | 46.05201 | 4.80771 | 5000 ft | 241 kts | 126° |
| 2026-05-05 20:14 | 46.04252 | 4.82772 | 5003 ft | 241 kts | 126° |
| 2026-05-05 20:14 | 46.03307 | 4.84769 | 4967 ft | 241 kts | 126° |
| 2026-05-05 20:15 | 46.02371 | 4.86755 | 4628 ft | 239 kts | 126° |
| 2026-05-05 20:15 | 46.01436 | 4.88733 | 4270 ft | 238 kts | 126° |
| 2026-05-05 20:15 | 46.00504 | 4.90697 | 3934 ft | 237 kts | 126° |
| 2026-05-05 20:15 | 45.99578 | 4.92646 | 3591 ft | 236 kts | 126° |
| 2026-05-05 20:16 | 45.98655 | 4.94586 | 3272 ft | 234 kts | 126° |
| 2026-05-05 20:16 | 45.97750 | 4.96486 | 3125 ft | 225 kts | 126° |
| 2026-05-05 20:16 | 45.96884 | 4.98304 | 3046 ft | 217 kts | 126° |
| 2026-05-05 20:16 | 45.96040 | 5.00073 | 2981 ft | 213 kts | 126° |
| 2026-05-05 20:17 | 45.95204 | 5.01824 | 2986 ft | 212 kts | 126° |
| 2026-05-05 20:17 | 45.94371 | 5.03570 | 2988 ft | 212 kts | 126° |
| 2026-05-05 20:17 | 45.93510 | 5.05281 | 2985 ft | 211 kts | 134° |
| 2026-05-05 20:17 | 45.92349 | 5.06529 | 2996 ft | 208 kts | 156° |
| 2026-05-05 20:18 | 45.90964 | 5.07059 | 3008 ft | 206 kts | 176° |
| 2026-05-05 20:18 | 45.89531 | 5.07232 | 3005 ft | 207 kts | 176° |
| 2026-05-05 20:18 | 45.88109 | 5.07404 | 2997 ft | 201 kts | 176° |
| 2026-05-05 20:18 | 45.86723 | 5.07573 | 3006 ft | 199 kts | 177° |
| 2026-05-05 20:19 | 45.85365 | 5.07739 | 3006 ft | 197 kts | 176° |
| 2026-05-05 20:19 | 45.83996 | 5.07906 | 2866 ft | 197 kts | 176° |
| 2026-05-05 20:19 | 45.82675 | 5.08068 | 2640 ft | 184 kts | 176° |
| 2026-05-05 20:19 | 45.81428 | 5.08220 | 2408 ft | 177 kts | 176° |
| 2026-05-05 20:20 | 45.80245 | 5.08364 | 2175 ft | 163 kts | 176° |
| 2026-05-05 20:20 | 45.79158 | 5.08497 | 1979 ft | 149 kts | 176° |
| 2026-05-05 20:20 | 45.78148 | 5.08620 | 1777 ft | 143 kts | 175° |
| 2026-05-05 20:20 | 45.77166 | 5.08740 | 1575 ft | 141 kts | 175° |
| 2026-05-05 20:21 | 45.76189 | 5.08859 | 1377 ft | 141 kts | 176° |
| 2026-05-05 20:21 | 45.75215 | 5.08980 | 1186 ft | 141 kts | 175° |
| 2026-05-05 20:21 | 45.74238 | 5.09113 | 1003 ft | 141 kts | 176° |
| 2026-05-05 20:21 | 45.73264 | 5.09219 | 802 ft | 139 kts | 176° |
| 2026-05-05 20:22 | 45.72440 | 5.09314 | 812 ft | 95 kts | 174° |
| 2026-05-05 20:22 | 45.71935 | 5.09364 | 820 ft | 40 kts | 180° |
| 2026-05-05 20:22 | 45.71693 | 5.09289 | 821 ft | 22 kts | 205° |
| 2026-05-05 20:22 | 45.71631 | 5.09111 | 814 ft | 23 kts | 265° |
| 2026-05-05 20:23 | 45.71618 | 5.08884 | 814 ft | 23 kts | 264° |
| 2026-05-05 20:23 | 45.71613 | 5.08786 | 811 ft | 1 kts | 266° |
| 2026-05-05 20:23 | 45.71611 | 5.08760 | 809 ft | 2 kts | 265° |
| 2026-05-05 20:23 | 45.71609 | 5.08722 | 808 ft | 9 kts | 264° |
| 2026-05-05 20:24 | 45.71598 | 5.08587 | 805 ft | 16 kts | 261° |
| 2026-05-05 20:24 | 45.71505 | 5.08516 | 803 ft | 18 kts | 175° |
| 2026-05-05 20:24 | 45.71391 | 5.08529 | 810 ft | 15 kts | 175° |
| 2026-05-05 20:24 | 45.71290 | 5.08540 | 813 ft | 14 kts | 175° |
| 2026-05-05 20:25 | 45.71189 | 5.08554 | 812 ft | 15 kts | 169° |
| 2026-05-05 20:25 | 45.71116 | 5.08632 | 818 ft | 11 kts | 134° |
| 2026-05-05 20:25 | 45.71045 | 5.08655 | 815 ft | 12 kts | 183° |
| 2026-05-05 20:25 | 45.70960 | 5.08648 | 816 ft | 12 kts | 183° |
| 2026-05-05 20:26 | 45.70893 | 5.08600 | 816 ft | 12 kts | 257° |
| 2026-05-05 20:26 | 45.70896 | 5.08510 | 816 ft | 2 kts | 272° |
| 2026-05-05 20:26 | 45.70896 | 5.08502 | 816 ft | 0 kts | 273° |